Chitose — JD2925 — position and weather

sailwx.info

Track history (hours):
 
Tides and Currents Weather Stations Pressure Air Temp Water Temp Dewpoint Dewpoint Depression Visibility Wind Speed Wind Dir Waves Ship Positions

Chitose

Last reported at 2018-Jan-20 08:38 UTC. Time now 2018-Jan-20 16:56 UTC.
Position N 35°27' E 139°39'.

Length 33 m; draft 3.8 m.

Type: Tug. MMSI: 431000953.

Date/timePositionNaut miles runAvg speedWind from/ knotsBaromVisibWave heightAir tempDewpointWater temp
2018-Jan-20 08:38N 35°27' E 139°39'0 0.6
2018-Jan-20 08:30N 35°27' E 139°39'3 5.7
2018-Jan-20 08:00N 35°28' E 139°42'1 2.0
2018-Jan-20 07:30N 35°28' E 139°41'2 3.5
2018-Jan-20 07:00N 35°27' E 139°39'0 0.4
2018-Jan-20 06:30N 35°27' E 139°39'0 0.0
2018-Jan-20 06:00N 35°27' E 139°39'0 0.0
2018-Jan-20 05:30N 35°27' E 139°39'0 0.0
2018-Jan-20 05:00N 35°27' E 139°39'0 0.0
2018-Jan-20 04:30N 35°27' E 139°39'0 0.0
2018-Jan-20 04:00N 35°27' E 139°39'0 0.0
2018-Jan-20 03:30N 35°27' E 139°39'0 0.0
2018-Jan-20 03:00N 35°27' E 139°39'1 1.9
2018-Jan-20 02:30N 35°27' E 139°40'4 7.0
2018-Jan-20 02:00N 35°29' E 139°43'3 5.6
2018-Jan-20 01:31N 35°31' E 139°46'0 0.1
2018-Jan-20 01:00N 35°31' E 139°46'0 0.3
2018-Jan-20 00:30N 35°31' E 139°46'3 4.9
2018-Jan-19 23:59N 35°29' E 139°48'1 1.8
2018-Jan-19 23:30N 35°28' E 139°48'1 2.2
2018-Jan-19 23:01N 35°27' E 139°46'4 8.3
2018-Jan-19 22:30N 35°27' E 139°41'2 4.6
2018-Jan-19 22:00N 35°27' E 139°39'0 0.0
2018-Jan-19 21:30N 35°27' E 139°39'0 0.0
2018-Jan-19 07:11N 35°27' E 139°39'0 0.0
2018-Jan-19 07:00N 35°27' E 139°39'0 0.0
2018-Jan-19 06:30N 35°27' E 139°39'0 0.0
2018-Jan-19 06:01N 35°27' E 139°39'0 0.0
2018-Jan-19 05:30N 35°27' E 139°39'0 0.0
2018-Jan-19 05:01N 35°27' E 139°39'0 0.0
2018-Jan-19 04:30N 35°27' E 139°39'0 0.0
2018-Jan-19 04:00N 35°27' E 139°39'0 0.0
2018-Jan-19 03:30N 35°27' E 139°39'0 0.0
2018-Jan-19 03:01N 35°27' E 139°39'0 0.0
2018-Jan-19 02:30N 35°27' E 139°39'1 1.1
2018-Jan-19 02:00N 35°27' E 139°39'4 8.2
2018-Jan-19 01:30N 35°24' E 139°42'2 4.6
2018-Jan-19 01:00N 35°24' E 139°39'1 1.4
2018-Jan-19 00:30N 35°24' E 139°38'0 0.1
2018-Jan-19 00:00N 35°24' E 139°38'0 0.9
2018-Jan-18 23:30N 35°24' E 139°39'4 7.1
2018-Jan-18 23:00N 35°25' E 139°43'3 5.4
2018-Jan-18 22:30N 35°27' E 139°41'0 0.3
2018-Jan-18 22:01N 35°27' E 139°41'0 0.0
2018-Jan-18 21:30N 35°27' E 139°41'2 3.9
2018-Jan-18 21:00N 35°27' E 139°39'0 0.0
2018-Jan-18 20:30N 35°27' E 139°39'0 0.0
2018-Jan-18 04:37N 35°27' E 139°39'0 2.4
2018-Jan-18 04:30N 35°28' E 139°39'5 9.2
2018-Jan-18 04:01N 35°23' E 139°41'3 5.0
2018-Jan-18 03:30N 35°24' E 139°38'0 0.0
2018-Jan-18 03:00N 35°24' E 139°38'0 0.0
2018-Jan-18 02:30N 35°24' E 139°38'1 1.5
2018-Jan-18 02:00N 35°24' E 139°39'2 4.4
2018-Jan-18 01:30N 35°23' E 139°41'1 1.0
2018-Jan-18 01:00N 35°23' E 139°41'2 2.4
2018-Jan-18 00:00N 35°25' E 139°41'0 0.1
2018-Jan-17 23:57N 35°25' E 139°41'  
2018-Jan-12 07:09N 35°27' E 139°39'0 0.0
2018-Jan-12 07:01N 35°27' E 139°39'0 0.0
2018-Jan-12 06:31N 35°27' E 139°39'0 0.0
2018-Jan-12 06:01N 35°27' E 139°39'0 0.0
2018-Jan-12 05:30N 35°27' E 139°39'0 0.0
2018-Jan-12 05:01N 35°27' E 139°39'0 0.0
2018-Jan-12 04:31N 35°27' E 139°39'0 0.0
2018-Jan-12 04:01N 35°27' E 139°39'0 0.0
2018-Jan-12 03:31N 35°27' E 139°39'0 0.0
2018-Jan-12 03:01N 35°27' E 139°39'0 0.0
2018-Jan-12 02:31N 35°27' E 139°39'0 0.0
2018-Jan-12 02:01N 35°27' E 139°39'2 4.9
2018-Jan-12 01:31N 35°27' E 139°41'3 5.6
2018-Jan-12 01:01N 35°24' E 139°41'0 0.1
2018-Jan-12 00:31N 35°24' E 139°41'1 1.6
2018-Jan-12 00:00N 35°23' E 139°41'1 1.6
2018-Jan-11 23:30N 35°22' E 139°41'5 9.2
2018-Jan-11 23:00N 35°27' E 139°41'2 4.1
2018-Jan-11 22:31N 35°27' E 139°39'0 0.0
2018-Jan-11 22:00N 35°27' E 139°39'0 0.0
2018-Jan-11 21:30N 35°27' E 139°39'0 0.0
2018-Jan-11 21:01N 35°27' E 139°39'0 0.0
2018-Jan-11 20:31N 35°27' E 139°39'0 0.0
2018-Jan-11 20:01N 35°27' E 139°39'0 0.0
2018-Jan-11 06:37N 35°27' E 139°39'0 0.0
2018-Jan-11 06:30N 35°27' E 139°39'0 0.0
2018-Jan-11 06:00N 35°27' E 139°39'0 0.0
2018-Jan-11 05:31N 35°27' E 139°39'0 0.0
2018-Jan-11 05:00N 35°27' E 139°39'0 0.0
2018-Jan-11 04:30N 35°27' E 139°39'0 0.0
2018-Jan-11 04:01N 35°27' E 139°39'0 0.0
2018-Jan-11 03:30N 35°27' E 139°39'0 0.0
2018-Jan-11 03:00N 35°27' E 139°39'0 0.0
2018-Jan-11 02:30N 35°27' E 139°39'0 0.0
2018-Jan-11 02:00N 35°27' E 139°39'0 0.0
2018-Jan-11 01:30N 35°27' E 139°39'1 1.5
2018-Jan-11 01:00N 35°27' E 139°39'3 6.4
2018-Jan-11 00:30N 35°28' E 139°43'0 0.4
2018-Jan-11 00:00N 35°28' E 139°43'0 0.8
2018-Jan-10 23:30N 35°28' E 139°44'0 0.0
2018-Jan-10 23:00N 35°28' E 139°44'0 0.0
2018-Jan-10 22:30N 35°28' E 139°44'1 2.4
2018-Jan-10 22:00N 35°29' E 139°45'0 0.5
2018-Jan-10 21:30N 35°29' E 139°44'1 2.9
2018-Jan-10 21:00N 35°28' E 139°44'4 8.4
2018-Jan-10 20:31N 35°27' E 139°39'0 0.0
2018-Jan-10 20:01N 35°27' E 139°39'  
Track history (hours):
 
Tides and Currents Weather Stations Pressure Air Temp Water Temp Dewpoint Dewpoint Depression Visibility Wind Speed Wind Dir Waves Ship Positions

Chitose

Last reported at 2018-Jan-20 08:38 UTC. Time now 2018-Jan-20 16:56 UTC.
Position N 35°27' E 139°39'.

Length 33 m; draft 3.8 m.

Type: Tug. MMSI: 431000953.

Date/timePositionNaut miles runAvg speedWind from/ knotsBaromVisibWave heightAir tempDewpointWater temp
2018-Jan-20 08:38N 35°27' E 139°39'0 0.6
2018-Jan-20 08:30N 35°27' E 139°39'3 5.7
2018-Jan-20 08:00N 35°28' E 139°42'1 2.0
2018-Jan-20 07:30N 35°28' E 139°41'2 3.5
2018-Jan-20 07:00N 35°27' E 139°39'0 0.4
2018-Jan-20 06:30N 35°27' E 139°39'0 0.0
2018-Jan-20 06:00N 35°27' E 139°39'0 0.0
2018-Jan-20 05:30N 35°27' E 139°39'0 0.0
2018-Jan-20 05:00N 35°27' E 139°39'0 0.0
2018-Jan-20 04:30N 35°27' E 139°39'0 0.0
2018-Jan-20 04:00N 35°27' E 139°39'0 0.0
2018-Jan-20 03:30N 35°27' E 139°39'0 0.0
2018-Jan-20 03:00N 35°27' E 139°39'1 1.9
2018-Jan-20 02:30N 35°27' E 139°40'4 7.0
2018-Jan-20 02:00N 35°29' E 139°43'3 5.6
2018-Jan-20 01:31N 35°31' E 139°46'0 0.1
2018-Jan-20 01:00N 35°31' E 139°46'0 0.3
2018-Jan-20 00:30N 35°31' E 139°46'3 4.9
2018-Jan-19 23:59N 35°29' E 139°48'1 1.8
2018-Jan-19 23:30N 35°28' E 139°48'1 2.2
2018-Jan-19 23:01N 35°27' E 139°46'4 8.3
2018-Jan-19 22:30N 35°27' E 139°41'2 4.6
2018-Jan-19 22:00N 35°27' E 139°39'0 0.0
2018-Jan-19 21:30N 35°27' E 139°39'0 0.0
2018-Jan-19 07:11N 35°27' E 139°39'0 0.0
2018-Jan-19 07:00N 35°27' E 139°39'0 0.0
2018-Jan-19 06:30N 35°27' E 139°39'0 0.0
2018-Jan-19 06:01N 35°27' E 139°39'0 0.0
2018-Jan-19 05:30N 35°27' E 139°39'0 0.0
2018-Jan-19 05:01N 35°27' E 139°39'0 0.0
2018-Jan-19 04:30N 35°27' E 139°39'0 0.0
2018-Jan-19 04:00N 35°27' E 139°39'0 0.0
2018-Jan-19 03:30N 35°27' E 139°39'0 0.0
2018-Jan-19 03:01N 35°27' E 139°39'0 0.0
2018-Jan-19 02:30N 35°27' E 139°39'1 1.1
2018-Jan-19 02:00N 35°27' E 139°39'4 8.2
2018-Jan-19 01:30N 35°24' E 139°42'2 4.6
2018-Jan-19 01:00N 35°24' E 139°39'1 1.4
2018-Jan-19 00:30N 35°24' E 139°38'0 0.1
2018-Jan-19 00:00N 35°24' E 139°38'0 0.9
2018-Jan-18 23:30N 35°24' E 139°39'4 7.1
2018-Jan-18 23:00N 35°25' E 139°43'3 5.4
2018-Jan-18 22:30N 35°27' E 139°41'0 0.3
2018-Jan-18 22:01N 35°27' E 139°41'0 0.0
2018-Jan-18 21:30N 35°27' E 139°41'2 3.9
2018-Jan-18 21:00N 35°27' E 139°39'0 0.0
2018-Jan-18 20:30N 35°27' E 139°39'0 0.0
2018-Jan-18 04:37N 35°27' E 139°39'0 2.4
2018-Jan-18 04:30N 35°28' E 139°39'5 9.2
2018-Jan-18 04:01N 35°23' E 139°41'3 5.0
2018-Jan-18 03:30N 35°24' E 139°38'0 0.0
2018-Jan-18 03:00N 35°24' E 139°38'0 0.0
2018-Jan-18 02:30N 35°24' E 139°38'1 1.5
2018-Jan-18 02:00N 35°24' E 139°39'2 4.4
2018-Jan-18 01:30N 35°23' E 139°41'1 1.0
2018-Jan-18 01:00N 35°23' E 139°41'2 2.4
2018-Jan-18 00:00N 35°25' E 139°41'0 0.1
2018-Jan-17 23:57N 35°25' E 139°41'  
2018-Jan-12 07:09N 35°27' E 139°39'0 0.0
2018-Jan-12 07:01N 35°27' E 139°39'0 0.0
2018-Jan-12 06:31N 35°27' E 139°39'0 0.0
2018-Jan-12 06:01N 35°27' E 139°39'0 0.0
2018-Jan-12 05:30N 35°27' E 139°39'0 0.0
2018-Jan-12 05:01N 35°27' E 139°39'0 0.0
2018-Jan-12 04:31N 35°27' E 139°39'0 0.0
2018-Jan-12 04:01N 35°27' E 139°39'0 0.0
2018-Jan-12 03:31N 35°27' E 139°39'0 0.0
2018-Jan-12 03:01N 35°27' E 139°39'0 0.0
2018-Jan-12 02:31N 35°27' E 139°39'0 0.0
2018-Jan-12 02:01N 35°27' E 139°39'2 4.9
2018-Jan-12 01:31N 35°27' E 139°41'3 5.6
2018-Jan-12 01:01N 35°24' E 139°41'0 0.1
2018-Jan-12 00:31N 35°24' E 139°41'1 1.6
2018-Jan-12 00:00N 35°23' E 139°41'1 1.6
2018-Jan-11 23:30N 35°22' E 139°41'5 9.2
2018-Jan-11 23:00N 35°27' E 139°41'2 4.1
2018-Jan-11 22:31N 35°27' E 139°39'0 0.0
2018-Jan-11 22:00N 35°27' E 139°39'0 0.0
2018-Jan-11 21:30N 35°27' E 139°39'0 0.0
2018-Jan-11 21:01N 35°27' E 139°39'0 0.0
2018-Jan-11 20:31N 35°27' E 139°39'0 0.0
2018-Jan-11 20:01N 35°27' E 139°39'0 0.0
2018-Jan-11 06:37N 35°27' E 139°39'0 0.0
2018-Jan-11 06:30N 35°27' E 139°39'0 0.0
2018-Jan-11 06:00N 35°27' E 139°39'0 0.0
2018-Jan-11 05:31N 35°27' E 139°39'0 0.0
2018-Jan-11 05:00N 35°27' E 139°39'0 0.0
2018-Jan-11 04:30N 35°27' E 139°39'0 0.0
2018-Jan-11 04:01N 35°27' E 139°39'0 0.0
2018-Jan-11 03:30N 35°27' E 139°39'0 0.0
2018-Jan-11 03:00N 35°27' E 139°39'0 0.0
2018-Jan-11 02:30N 35°27' E 139°39'0 0.0
2018-Jan-11 02:00N 35°27' E 139°39'0 0.0
2018-Jan-11 01:30N 35°27' E 139°39'1 1.5
2018-Jan-11 01:00N 35°27' E 139°39'3 6.4
2018-Jan-11 00:30N 35°28' E 139°43'0 0.4
2018-Jan-11 00:00N 35°28' E 139°43'0 0.8
2018-Jan-10 23:30N 35°28' E 139°44'0 0.0
2018-Jan-10 23:00N 35°28' E 139°44'0 0.0
2018-Jan-10 22:30N 35°28' E 139°44'1 2.4
2018-Jan-10 22:00N 35°29' E 139°45'0 0.5
2018-Jan-10 21:30N 35°29' E 139°44'1 2.9
2018-Jan-10 21:00N 35°28' E 139°44'4 8.4
2018-Jan-10 20:31N 35°27' E 139°39'0 0.0
2018-Jan-10 20:01N 35°27' E 139°39'  

Dump ship's entire track history